createdAt,value
2022-08-03T00:01:57.353Z,25.00
2022-08-03T00:04:33.950Z,25.00
2022-08-03T00:07:02.958Z,25.00
2022-08-03T00:09:35.635Z,25.20
2022-08-03T00:12:04.406Z,25.00
2022-08-03T00:14:34.213Z,25.00
2022-08-03T00:17:03.457Z,24.80
2022-08-03T00:19:31.821Z,25.10
2022-08-03T00:22:00.214Z,25.10
2022-08-03T00:24:28.741Z,25.30
2022-08-03T00:26:57.349Z,25.30
2022-08-03T00:29:25.677Z,25.20
2022-08-03T00:32:00.527Z,25.40
2022-08-03T00:34:36.498Z,25.30
2022-08-03T00:37:18.338Z,25.20
2022-08-03T00:39:48.140Z,25.20
2022-08-03T00:42:17.120Z,25.00
2022-08-03T00:44:46.524Z,24.80
2022-08-03T00:47:16.378Z,24.80
2022-08-03T00:49:44.904Z,24.80
2022-08-03T00:52:16.667Z,25.00
2022-08-03T00:54:45.045Z,24.90
2022-08-03T00:57:13.765Z,24.50
2022-08-03T00:59:42.190Z,24.30
2022-08-03T01:02:10.518Z,24.40
2022-08-03T01:04:40.568Z,24.60
2022-08-03T01:07:15.812Z,24.70
2022-08-03T01:10:04.457Z,24.70
2022-08-03T01:12:39.344Z,24.60
2022-08-03T01:15:14.478Z,24.60
2022-08-03T01:17:52.595Z,24.60
2022-08-03T01:20:24.987Z,24.60
2022-08-03T01:23:07.066Z,24.60
2022-08-03T01:25:54.354Z,24.70
2022-08-03T01:28:38.450Z,24.80
2022-08-03T01:31:11.562Z,24.70
2022-08-03T01:33:44.319Z,24.80
2022-08-03T01:36:17.430Z,24.70
2022-08-03T01:38:50.725Z,24.70
2022-08-03T01:41:22.448Z,24.30
2022-08-03T01:43:55.464Z,24.30
2022-08-03T01:46:48.996Z,24.50
2022-08-03T01:49:20.078Z,24.50
2022-08-03T01:52:02.841Z,24.60
2022-08-03T01:54:34.047Z,24.50
2022-08-03T01:57:03.543Z,24.40
2022-08-03T01:59:33.743Z,24.50
2022-08-03T02:02:28.794Z,24.40
2022-08-03T02:04:57.806Z,24.20
2022-08-03T02:07:27.895Z,24.20
2022-08-03T02:09:57.495Z,24.20
2022-08-03T02:12:27.941Z,24.20
2022-08-03T02:14:59.961Z,24.20
2022-08-03T02:17:38.530Z,24.10
2022-08-03T02:20:10.256Z,24.20
2022-08-03T02:22:41.750Z,24.20
2022-08-03T02:25:11.843Z,24.10
2022-08-03T02:27:44.230Z,24.30
2022-08-03T02:30:14.853Z,24.40
2022-08-03T02:32:49.828Z,24.40
2022-08-03T02:35:19.924Z,24.50
2022-08-03T02:37:51.748Z,24.10
2022-08-03T02:40:21.607Z,24.20
2022-08-03T02:42:53.036Z,24.40
2022-08-03T02:45:22.354Z,24.20
2022-08-03T02:47:56.751Z,24.20
2022-08-03T02:50:27.653Z,24.40
2022-08-03T02:52:58.345Z,24.30
2022-08-03T02:55:28.672Z,24.10
2022-08-03T02:58:01.477Z,24.40
2022-08-03T03:00:31.149Z,24.60
2022-08-03T03:03:06.363Z,24.80
2022-08-03T03:05:52.759Z,24.60
2022-08-03T03:08:28.287Z,24.50
2022-08-03T03:10:58.964Z,24.20
2022-08-03T03:13:29.420Z,24.30
2022-08-03T03:16:01.630Z,24.30
2022-08-03T03:18:34.355Z,24.10
2022-08-03T03:21:04.735Z,24.10
2022-08-03T03:23:35.921Z,24.00
2022-08-03T03:26:04.580Z,23.90
2022-08-03T03:28:33.920Z,23.80
2022-08-03T03:31:02.808Z,23.50
2022-08-03T03:33:32.815Z,23.50
2022-08-03T03:36:01.693Z,23.70
2022-08-03T03:38:30.815Z,23.60
2022-08-03T03:40:59.367Z,23.50
2022-08-03T03:43:28.007Z,23.50
2022-08-03T03:45:56.913Z,23.40
2022-08-03T03:48:26.337Z,23.20
2022-08-03T03:50:57.392Z,23.40
2022-08-03T03:53:26.077Z,23.40
2022-08-03T03:55:59.782Z,23.40
2022-08-03T03:58:32.669Z,23.50
2022-08-03T04:01:01.648Z,23.40
2022-08-03T04:03:30.180Z,23.50
2022-08-03T04:06:18.021Z,23.20
2022-08-03T04:09:04.458Z,23.50
2022-08-03T04:11:39.631Z,23.50
2022-08-03T04:14:12.268Z,23.80
2022-08-03T04:16:44.201Z,23.80
2022-08-03T04:19:21.044Z,23.80
2022-08-03T04:21:57.050Z,23.60
2022-08-03T04:24:28.244Z,23.70
2022-08-03T04:26:58.744Z,23.70
2022-08-03T04:29:30.648Z,23.70
2022-08-03T04:32:02.060Z,23.70
2022-08-03T04:34:32.171Z,23.60
2022-08-03T04:37:07.221Z,23.40
2022-08-03T04:39:37.459Z,23.50
2022-08-03T04:42:10.224Z,23.30
2022-08-03T04:44:41.609Z,23.40
2022-08-03T04:49:56.021Z,23.50
2022-08-03T04:52:26.383Z,23.60
2022-08-03T04:54:54.789Z,23.60
2022-08-03T04:57:23.665Z,23.60
2022-08-03T05:00:01.712Z,23.60
2022-08-03T05:02:31.938Z,23.70
2022-08-03T05:05:00.882Z,23.70
2022-08-03T05:07:36.341Z,23.80
2022-08-03T05:10:15.000Z,23.90
2022-08-03T05:12:45.389Z,24.10
2022-08-03T05:15:14.171Z,24.10
2022-08-03T05:17:42.992Z,23.90
2022-08-03T05:20:12.602Z,24.10
2022-08-03T05:22:42.391Z,24.30
2022-08-03T05:25:19.125Z,24.20
2022-08-03T05:27:49.122Z,24.20
2022-08-03T05:30:30.359Z,24.50
2022-08-03T05:33:03.449Z,24.70
2022-08-03T05:35:56.157Z,24.50
2022-08-03T05:38:23.797Z,24.50
2022-08-03T05:41:22.198Z,24.50
2022-08-03T05:43:46.379Z,24.40
2022-08-03T05:46:15.102Z,24.50
2022-08-03T05:48:44.132Z,24.60
2022-08-03T05:51:12.589Z,24.40
2022-08-03T05:53:42.990Z,24.50
2022-08-03T05:56:15.263Z,24.50
2022-08-03T05:58:47.349Z,24.80
2022-08-03T06:01:16.476Z,24.90
2022-08-03T06:03:45.327Z,25.00
2022-08-03T06:06:13.911Z,25.20
2022-08-03T06:08:44.228Z,25.30
2022-08-03T06:11:13.024Z,25.40
2022-08-03T06:13:41.997Z,25.60
2022-08-03T06:16:10.754Z,25.80
2022-08-03T06:18:41.464Z,25.90
2022-08-03T06:21:15.431Z,26.00
2022-08-03T06:23:52.653Z,25.90
2022-08-03T06:26:22.332Z,26.10
2022-08-03T06:28:52.674Z,26.10
2022-08-03T06:31:24.270Z,26.10
2022-08-03T06:34:32.576Z,26.50
2022-08-03T06:36:41.528Z,26.70
2022-08-03T06:39:13.120Z,26.70
2022-08-03T06:41:44.778Z,26.70
2022-08-03T06:44:13.522Z,26.80
2022-08-03T06:46:43.351Z,26.90
2022-08-03T06:49:11.936Z,27.00
2022-08-03T06:52:03.464Z,27.10
2022-08-03T06:54:33.321Z,27.10
2022-08-03T06:57:02.039Z,27.20
2022-08-03T07:00:09.298Z,27.20
2022-08-03T07:02:20.482Z,27.40
2022-08-03T07:04:49.309Z,27.50
2022-08-03T07:07:19.542Z,27.70
2022-08-03T07:09:56.448Z,27.90
2022-08-03T07:12:27.399Z,27.90
2022-08-03T07:15:00.322Z,28.00
2022-08-03T07:17:30.093Z,28.00
2022-08-03T07:19:58.856Z,28.10
2022-08-03T07:22:27.422Z,28.20
2022-08-03T07:24:57.247Z,28.30
2022-08-03T07:27:27.008Z,28.50
2022-08-03T07:29:56.033Z,28.20
2022-08-03T07:32:24.474Z,28.20
2022-08-03T07:34:57.090Z,28.30
2022-08-03T07:37:28.790Z,28.50
2022-08-03T07:39:58.755Z,28.60
2022-08-03T07:42:27.173Z,28.90
2022-08-03T07:44:55.678Z,28.90
2022-08-03T07:47:25.962Z,29.10
2022-08-03T07:50:05.000Z,29.00
2022-08-03T07:52:53.726Z,29.00
2022-08-03T07:55:25.129Z,29.00
2022-08-03T07:58:04.319Z,29.00
2022-08-03T08:00:33.335Z,29.00
2022-08-03T08:03:01.733Z,29.20
2022-08-03T08:05:30.756Z,29.40
2022-08-03T08:07:59.217Z,29.30
2022-08-03T08:10:29.702Z,29.30
2022-08-03T08:12:58.767Z,29.40
2022-08-03T08:15:27.474Z,29.60
2022-08-03T08:17:57.369Z,29.70
2022-08-03T08:20:30.398Z,29.70
2022-08-03T08:23:02.036Z,29.70
2022-08-03T08:25:33.537Z,29.70
2022-08-03T08:28:22.475Z,29.60
2022-08-03T08:30:53.803Z,29.70
2022-08-03T08:33:23.298Z,29.60
2022-08-03T08:35:55.292Z,29.60
2022-08-03T08:38:25.762Z,30.00
2022-08-03T08:40:56.925Z,30.10
2022-08-03T08:43:26.550Z,30.20
2022-08-03T08:45:57.245Z,30.30
2022-08-03T08:48:29.325Z,30.40
2022-08-03T08:51:00.085Z,30.40
2022-08-03T08:53:30.325Z,30.50
2022-08-03T08:56:01.721Z,30.20
2022-08-03T08:58:39.509Z,30.30
2022-08-03T09:01:08.666Z,30.30
2022-08-03T09:03:37.501Z,30.20
2022-08-03T09:06:06.613Z,30.20
2022-08-03T09:08:35.792Z,30.30
2022-08-03T09:11:08.382Z,30.30
2022-08-03T09:13:40.885Z,30.50
2022-08-03T09:16:14.139Z,30.70
2022-08-03T09:18:43.550Z,30.90
2022-08-03T09:21:32.619Z,30.90
2022-08-03T09:24:04.152Z,30.90
2022-08-03T09:26:37.686Z,31.10
2022-08-03T09:29:14.043Z,31.30
2022-08-03T09:31:45.661Z,31.50
2022-08-03T09:34:16.009Z,31.50
2022-08-03T09:36:46.731Z,31.50
2022-08-03T09:39:18.719Z,31.70
2022-08-03T09:42:05.461Z,31.70
2022-08-03T09:44:39.504Z,31.60
2022-08-03T09:47:08.287Z,31.60
2022-08-03T09:49:36.878Z,31.50
2022-08-03T09:52:33.520Z,31.50
2022-08-03T09:56:01.739Z,31.40
2022-08-03T09:58:09.269Z,31.60
2022-08-03T10:00:55.257Z,31.80
2022-08-03T10:03:24.212Z,31.90
2022-08-03T10:05:57.428Z,32.10
2022-08-03T10:08:27.903Z,32.30
2022-08-03T10:10:58.700Z,32.50
2022-08-03T10:13:29.297Z,32.60
2022-08-03T10:16:22.719Z,32.50
2022-08-03T10:18:45.990Z,32.50
2022-08-03T10:21:17.956Z,32.60
2022-08-03T10:23:47.373Z,32.60
2022-08-03T10:26:20.502Z,32.70
2022-08-03T10:28:53.561Z,32.60
2022-08-03T10:31:23.664Z,32.60
2022-08-03T10:33:56.937Z,32.50
2022-08-03T10:36:28.179Z,32.50
2022-08-03T10:38:57.417Z,32.60
2022-08-03T10:41:31.095Z,32.60
2022-08-03T10:44:05.473Z,32.40
2022-08-03T10:46:37.637Z,32.50
2022-08-03T10:49:08.632Z,32.50
2022-08-03T10:51:37.560Z,32.60
2022-08-03T10:54:05.960Z,32.70
2022-08-03T10:57:01.115Z,32.60
2022-08-03T11:00:05.168Z,32.40
2022-08-03T11:03:11.310Z,32.40
2022-08-03T11:05:42.661Z,32.70
2022-08-03T11:08:41.549Z,32.90
2022-08-03T11:11:28.714Z,33.10
2022-08-03T11:14:04.699Z,32.90
2022-08-03T11:16:36.267Z,33.00
2022-08-03T11:19:07.214Z,33.20
2022-08-03T11:21:59.258Z,33.50
2022-08-03T11:25:00.826Z,33.60
2022-08-03T11:27:31.981Z,33.80
2022-08-03T11:30:03.060Z,33.50
2022-08-03T11:32:59.979Z,33.60
2022-08-03T11:35:30.438Z,33.60
2022-08-03T11:38:12.931Z,33.70
2022-08-03T11:40:44.311Z,33.80
2022-08-03T11:43:47.608Z,33.80
2022-08-03T11:46:28.584Z,33.80
2022-08-03T11:49:10.509Z,33.70
2022-08-03T11:51:41.085Z,33.90
2022-08-03T11:54:11.491Z,33.90
2022-08-03T11:56:47.181Z,33.80
2022-08-03T11:59:20.408Z,33.90
2022-08-03T12:01:50.633Z,33.90
2022-08-03T12:04:20.365Z,33.90
2022-08-03T12:07:01.504Z,33.80
2022-08-03T12:09:30.092Z,33.80
2022-08-03T12:12:00.469Z,34.10
2022-08-03T12:14:48.637Z,34.00
2022-08-03T12:17:18.785Z,34.00
2022-08-03T12:19:48.948Z,34.20
2022-08-03T12:22:18.037Z,34.30
2022-08-03T12:24:47.826Z,34.10
2022-08-03T12:27:26.617Z,34.10
2022-08-03T12:29:58.389Z,34.10
2022-08-03T12:32:27.994Z,34.20
2022-08-03T12:35:01.258Z,34.30
2022-08-03T12:37:30.671Z,34.30
2022-08-03T12:40:07.779Z,34.30
2022-08-03T12:42:39.316Z,34.20
2022-08-03T12:45:20.821Z,34.10
2022-08-03T12:47:57.574Z,34.10
2022-08-03T12:50:29.107Z,34.20
2022-08-03T12:52:58.347Z,34.20
2022-08-03T12:55:57.690Z,34.20
2022-08-03T12:58:33.748Z,34.40
2022-08-03T13:01:05.006Z,34.40
2022-08-03T13:03:43.591Z,34.70
2022-08-03T13:06:18.192Z,34.60
2022-08-03T13:08:48.068Z,34.40
2022-08-03T13:11:50.521Z,34.40
2022-08-03T13:14:15.349Z,34.50
2022-08-03T13:16:47.897Z,34.40
2022-08-03T13:19:16.390Z,34.40
2022-08-03T13:21:53.690Z,34.40
2022-08-03T13:24:33.426Z,34.60
2022-08-03T13:27:58.840Z,34.60
2022-08-03T13:29:50.991Z,34.50
2022-08-03T13:32:19.454Z,34.40
2022-08-03T13:34:47.901Z,34.40
2022-08-03T13:37:17.993Z,34.20
2022-08-03T13:40:00.246Z,34.20
2022-08-03T13:42:30.712Z,34.10
2022-08-03T13:44:59.165Z,34.20
2022-08-03T13:47:27.610Z,34.20
2022-08-03T13:49:59.690Z,34.40
2022-08-03T13:52:32.904Z,34.50
2022-08-03T13:55:01.470Z,34.50
2022-08-03T13:58:11.426Z,34.80
2022-08-03T14:00:27.966Z,34.80
2022-08-03T14:03:03.799Z,34.90
2022-08-03T14:05:35.841Z,34.80
2022-08-03T14:08:07.146Z,34.90
2022-08-03T14:10:37.333Z,34.70
2022-08-03T14:13:06.132Z,34.70
2022-08-03T14:15:37.481Z,34.50
2022-08-03T14:18:07.391Z,34.60
2022-08-03T14:20:47.832Z,34.50
2022-08-03T14:23:21.556Z,34.50
2022-08-03T14:25:52.766Z,34.50
2022-08-03T14:28:23.763Z,34.50
2022-08-03T14:30:53.926Z,34.70
2022-08-03T14:33:22.757Z,34.80
2022-08-03T14:35:52.009Z,34.90
2022-08-03T14:38:23.488Z,34.90
2022-08-03T14:40:53.202Z,34.90
2022-08-03T14:43:21.679Z,34.90
2022-08-03T14:45:52.243Z,34.90
2022-08-03T14:49:02.598Z,34.70
2022-08-03T14:51:09.454Z,34.70
2022-08-03T14:53:39.298Z,34.80
2022-08-03T14:56:10.448Z,34.90
2022-08-03T14:58:39.754Z,34.90
2022-08-03T15:02:05.232Z,34.70
2022-08-03T15:03:57.190Z,34.70
2022-08-03T15:06:26.106Z,34.60
2022-08-03T15:09:21.701Z,34.50
2022-08-03T15:11:44.624Z,34.50
2022-08-03T15:14:13.510Z,34.40
2022-08-03T15:16:43.159Z,34.50
2022-08-03T15:20:02.166Z,34.70
2022-08-03T15:22:00.936Z,34.80
2022-08-03T15:24:31.012Z,34.80
2022-08-03T15:26:59.668Z,34.60
2022-08-03T15:30:07.560Z,34.60
2022-08-03T15:32:16.777Z,34.70
2022-08-03T15:34:50.285Z,34.50
2022-08-03T15:37:20.100Z,34.40
2022-08-03T15:39:59.308Z,34.40
2022-08-03T15:42:30.699Z,34.50
2022-08-03T15:45:00.987Z,34.70
2022-08-03T15:47:29.611Z,34.50
2022-08-03T15:49:58.107Z,34.40
2022-08-03T15:52:26.428Z,34.30
2022-08-03T15:54:56.108Z,34.20
2022-08-03T15:57:25.334Z,34.30
2022-08-03T15:59:53.670Z,34.30
2022-08-03T16:02:22.053Z,34.30
2022-08-03T16:04:50.423Z,34.30
2022-08-03T16:07:38.780Z,34.30
2022-08-03T16:10:09.994Z,34.20
2022-08-03T16:12:38.371Z,34.10
2022-08-03T16:15:08.386Z,34.10
2022-08-03T16:17:36.754Z,34.20
2022-08-03T16:20:10.682Z,34.30
2022-08-03T16:22:54.246Z,34.20
2022-08-03T16:25:24.013Z,34.00
2022-08-03T16:28:03.263Z,34.00
2022-08-03T16:30:36.827Z,33.90
2022-08-03T16:33:05.363Z,33.90
2022-08-03T16:35:33.794Z,34.00
2022-08-03T16:38:06.472Z,33.90
2022-08-03T16:40:39.470Z,33.90
2022-08-03T16:43:18.489Z,33.90
2022-08-03T16:45:47.725Z,33.80
2022-08-03T16:48:16.501Z,33.70
2022-08-03T16:50:45.472Z,33.70
2022-08-03T16:53:16.653Z,33.70
2022-08-03T16:55:51.913Z,33.70
2022-08-03T16:58:34.617Z,33.70
2022-08-03T17:01:21.719Z,33.50
2022-08-03T17:04:02.088Z,33.40
2022-08-03T17:06:35.324Z,33.40
2022-08-03T17:09:08.330Z,33.40
2022-08-03T17:11:44.311Z,33.30
2022-08-03T17:14:16.493Z,33.20
2022-08-03T17:19:32.471Z,33.10
2022-08-03T17:22:04.116Z,33.00
2022-08-03T17:24:47.496Z,33.00
2022-08-03T17:28:49.099Z,33.00
2022-08-03T17:30:12.013Z,33.00
2022-08-03T17:32:52.635Z,32.90
2022-08-03T17:35:36.716Z,32.80
2022-08-03T17:38:12.101Z,32.70
2022-08-03T17:46:23.574Z,32.70
2022-08-03T17:48:52.883Z,32.60
2022-08-03T17:51:25.747Z,32.50
2022-08-03T17:54:02.094Z,32.40
2022-08-03T17:56:45.977Z,32.40
2022-08-03T17:59:51.444Z,32.40
2022-08-03T18:02:51.622Z,32.30
2022-08-03T18:05:22.159Z,32.20
2022-08-03T18:08:01.738Z,32.10
2022-08-03T18:10:36.298Z,32.10
2022-08-03T18:13:24.215Z,32.00
2022-08-03T18:16:01.569Z,31.80
2022-08-03T18:18:37.319Z,31.70
2022-08-03T18:21:09.363Z,31.50
2022-08-03T18:23:50.337Z,31.50
2022-08-03T18:26:19.991Z,31.40
2022-08-03T18:28:50.623Z,31.40
2022-08-03T18:31:33.243Z,31.30
2022-08-03T18:34:18.572Z,31.30
2022-08-03T18:37:07.356Z,31.20
2022-08-03T18:39:52.647Z,31.10
2022-08-03T18:42:26.295Z,31.10
2022-08-03T18:44:56.441Z,31.10
2022-08-03T18:47:50.443Z,31.00
2022-08-03T18:50:26.435Z,31.00
2022-08-03T18:53:16.684Z,30.90
2022-08-03T18:56:01.842Z,30.80
2022-08-03T18:58:36.353Z,30.70
2022-08-03T19:02:01.045Z,30.60
2022-08-03T19:04:11.143Z,30.60
2022-08-03T19:06:44.937Z,30.60
2022-08-03T19:09:22.574Z,30.60
2022-08-03T19:12:13.273Z,30.50
2022-08-03T19:14:54.880Z,30.50
2022-08-03T19:17:29.523Z,30.50
2022-08-03T19:20:01.954Z,30.40
2022-08-03T19:22:31.226Z,30.40
2022-08-03T19:25:01.995Z,30.30
2022-08-03T19:27:31.678Z,30.40
2022-08-03T19:30:04.472Z,30.30
2022-08-03T19:32:36.647Z,30.20
2022-08-03T19:35:10.094Z,30.00
2022-08-03T19:37:44.834Z,30.00
2022-08-03T19:40:13.797Z,30.00
2022-08-03T19:42:46.480Z,30.00
2022-08-03T19:45:22.444Z,29.90
2022-08-03T19:48:14.546Z,29.90
2022-08-03T19:50:44.902Z,29.90
2022-08-03T19:53:14.470Z,29.90
2022-08-03T19:55:47.473Z,30.10
2022-08-03T19:58:28.362Z,30.10
2022-08-03T20:00:57.934Z,30.10
2022-08-03T20:03:37.855Z,30.20
2022-08-03T20:06:17.015Z,30.20
2022-08-03T20:08:45.597Z,30.20
2022-08-03T20:11:20.097Z,30.10
2022-08-03T20:13:58.292Z,30.10
2022-08-03T20:16:26.872Z,30.00
2022-08-03T20:18:55.142Z,30.00
2022-08-03T20:21:28.594Z,29.90
2022-08-03T20:24:03.361Z,29.80
2022-08-03T20:26:53.532Z,29.80
2022-08-03T20:29:31.457Z,29.80
2022-08-03T20:32:19.573Z,29.80
2022-08-03T20:34:53.428Z,29.80
2022-08-03T20:37:23.185Z,29.70
2022-08-03T20:39:51.592Z,29.70
2022-08-03T20:42:21.645Z,29.80
2022-08-03T20:45:04.430Z,29.90
2022-08-03T20:47:36.157Z,29.90
2022-08-03T20:50:07.653Z,29.80
2022-08-03T20:52:49.257Z,29.70
2022-08-03T20:55:20.409Z,29.70
2022-08-03T20:58:08.614Z,29.60
2022-08-03T21:00:36.993Z,29.50
2022-08-03T21:03:06.840Z,29.80
2022-08-03T21:05:51.578Z,29.90
2022-08-03T21:08:23.677Z,30.00
2022-08-03T21:10:54.760Z,29.80
2022-08-03T21:12:59.755Z,32.70
2022-08-03T21:13:04.917Z,32.70
2022-08-03T21:13:30.429Z,29.70
2022-08-03T21:16:11.631Z,29.80
2022-08-03T21:18:45.760Z,29.60
2022-08-03T21:21:16.911Z,29.50
2022-08-03T21:23:48.601Z,29.40
2022-08-03T21:26:20.700Z,29.60
2022-08-03T21:28:50.070Z,29.30
2022-08-03T21:31:25.592Z,28.90
2022-08-03T21:33:59.226Z,28.90
2022-08-03T21:36:28.800Z,28.70
2022-08-03T21:38:57.996Z,28.60
2022-08-03T21:41:30.103Z,28.40
2022-08-03T21:43:59.080Z,28.20
2022-08-03T21:46:28.823Z,28.00
2022-08-03T21:50:04.616Z,28.00
2022-08-03T21:51:51.477Z,28.10
2022-08-03T21:54:24.463Z,28.40
2022-08-03T21:56:58.079Z,28.10
2022-08-03T21:59:26.865Z,27.90
2022-08-03T22:01:58.573Z,27.90
2022-08-03T22:04:50.445Z,27.90
2022-08-03T22:07:16.914Z,28.10
2022-08-03T22:09:50.893Z,28.10
2022-08-03T22:12:23.820Z,27.90
2022-08-03T22:15:00.453Z,27.80
2022-08-03T22:17:54.528Z,28.00
2022-08-03T22:20:22.164Z,28.20
2022-08-03T22:22:56.028Z,27.80
2022-08-03T22:25:28.798Z,28.00
2022-08-03T22:28:00.026Z,28.10
2022-08-03T22:30:28.491Z,27.70
2022-08-03T22:32:57.721Z,27.80
2022-08-03T22:35:27.992Z,27.60
2022-08-03T22:37:58.476Z,27.70
2022-08-03T22:40:27.917Z,27.90
2022-08-03T22:42:56.996Z,28.00
2022-08-03T22:46:06.039Z,28.10
2022-08-03T22:48:17.987Z,28.10
2022-08-03T22:50:47.246Z,28.00
2022-08-03T22:53:20.099Z,27.90
2022-08-03T22:55:50.090Z,27.40
2022-08-03T22:58:18.697Z,27.60
2022-08-03T23:00:53.982Z,27.60
2022-08-03T23:03:58.626Z,27.70
2022-08-03T23:06:16.737Z,27.60
2022-08-03T23:08:48.334Z,27.70
2022-08-03T23:11:19.001Z,27.30
2022-08-03T23:13:51.096Z,27.20
2022-08-03T23:16:29.058Z,27.30
2022-08-03T23:18:59.920Z,27.40
2022-08-03T23:21:53.416Z,27.50
2022-08-03T23:24:30.581Z,27.70
2022-08-03T23:26:59.509Z,27.80
2022-08-03T23:29:29.490Z,27.80
2022-08-03T23:32:02.223Z,27.80
2022-08-03T23:34:50.165Z,27.50
2022-08-03T23:37:20.165Z,27.30
2022-08-03T23:39:49.620Z,27.00
2022-08-03T23:42:20.292Z,27.10
2022-08-03T23:44:53.893Z,27.00
2022-08-03T23:47:24.135Z,27.10
2022-08-03T23:50:12.560Z,27.20
2022-08-03T23:55:53.544Z,27.20
2022-08-03T23:58:36.349Z,27.30
